createdAt,value
2023-03-19T00:01:53.451Z,90.43
2023-03-19T00:04:25.482Z,90.58
2023-03-19T00:06:56.917Z,90.77
2023-03-19T00:09:29.145Z,90.74
2023-03-19T00:12:00.535Z,90.53
2023-03-19T00:14:31.944Z,90.28
2023-03-19T00:17:03.449Z,90.66
2023-03-19T00:19:34.897Z,89.92
2023-03-19T00:22:06.257Z,90.79
2023-03-19T00:24:37.619Z,90.91
2023-03-19T00:27:08.960Z,91.16
2023-03-19T00:29:40.395Z,90.99
2023-03-19T00:32:11.788Z,90.78
2023-03-19T00:34:43.109Z,91.35
2023-03-19T00:37:16.364Z,91.03
2023-03-19T00:39:47.727Z,91.16
2023-03-19T00:42:19.171Z,91.34
2023-03-19T00:44:50.674Z,91.29
2023-03-19T00:47:22.466Z,91.54
2023-03-19T00:49:53.856Z,91.69
2023-03-19T00:52:25.660Z,91.53
2023-03-19T00:54:57.229Z,92.12
2023-03-19T00:57:28.661Z,91.54
2023-03-19T01:00:00.010Z,91.72
2023-03-19T01:02:32.211Z,91.22
2023-03-19T01:05:03.983Z,91.67
2023-03-19T01:07:35.478Z,91.58
2023-03-19T01:10:07.333Z,91.59
2023-03-19T01:12:38.789Z,91.41
2023-03-19T01:15:10.737Z,90.96
2023-03-19T01:17:42.363Z,91.30
2023-03-19T01:20:15.206Z,91.14
2023-03-19T01:22:46.572Z,91.72
2023-03-19T01:25:18.023Z,91.49
2023-03-19T01:27:51.039Z,91.42
2023-03-19T01:30:22.430Z,91.14
2023-03-19T01:32:53.872Z,91.59
2023-03-19T01:35:25.254Z,91.00
2023-03-19T01:37:56.666Z,91.26
2023-03-19T01:40:28.340Z,91.04
2023-03-19T01:43:22.066Z,91.17
2023-03-19T01:45:58.884Z,91.15
2023-03-19T01:48:41.068Z,91.34
2023-03-19T01:51:16.472Z,90.66
2023-03-19T01:53:51.749Z,90.99
2023-03-19T01:56:34.807Z,90.64
2023-03-19T01:59:23.078Z,90.51
2023-03-19T02:02:02.280Z,90.80
2023-03-19T02:04:37.756Z,90.87
2023-03-19T02:07:10.301Z,90.65
2023-03-19T02:09:41.963Z,90.31
2023-03-19T02:12:13.754Z,91.38
2023-03-19T02:14:45.116Z,90.98
2023-03-19T02:17:17.040Z,90.55
2023-03-19T02:20:01.385Z,90.86
2023-03-19T02:22:33.478Z,90.69
2023-03-19T02:25:21.701Z,90.88
2023-03-19T02:27:53.768Z,90.86
2023-03-19T02:30:32.534Z,91.20
2023-03-19T02:33:04.625Z,91.36
2023-03-19T02:35:37.240Z,91.85
2023-03-19T02:38:09.575Z,91.06
2023-03-19T02:41:05.552Z,91.42
2023-03-19T02:43:41.259Z,91.52
2023-03-19T02:46:13.821Z,91.69
2023-03-19T02:48:45.251Z,91.86
2023-03-19T02:51:16.671Z,91.55
2023-03-19T02:53:48.040Z,92.01
2023-03-19T02:56:19.379Z,91.96
2023-03-19T02:58:50.753Z,91.91
2023-03-19T03:01:22.175Z,91.96
2023-03-19T03:03:53.646Z,91.80
2023-03-19T03:06:24.982Z,91.92
2023-03-19T03:08:56.519Z,92.11
2023-03-19T03:11:27.855Z,92.51
2023-03-19T03:13:59.278Z,91.83
2023-03-19T03:16:30.777Z,92.14
2023-03-19T03:19:02.480Z,92.48
2023-03-19T03:21:35.675Z,92.43
2023-03-19T03:24:07.425Z,92.53
2023-03-19T03:26:39.003Z,92.33
2023-03-19T03:29:10.962Z,93.21
2023-03-19T03:31:42.438Z,92.44
2023-03-19T03:34:13.776Z,92.14
2023-03-19T03:36:47.002Z,92.56
2023-03-19T03:39:18.989Z,92.38
2023-03-19T03:41:50.417Z,92.49
2023-03-19T03:44:21.797Z,92.32
2023-03-19T03:46:53.240Z,92.65
2023-03-19T03:49:24.574Z,92.64
2023-03-19T03:51:56.047Z,92.65
2023-03-19T03:54:27.421Z,92.61
2023-03-19T03:56:59.076Z,92.74
2023-03-19T03:59:31.122Z,92.65
2023-03-19T04:02:02.633Z,92.65
2023-03-19T04:04:34.300Z,93.16
2023-03-19T04:07:06.650Z,93.33
2023-03-19T04:09:37.989Z,93.64
2023-03-19T04:12:09.454Z,93.43
2023-03-19T04:14:40.858Z,93.78
2023-03-19T04:17:12.270Z,94.24
2023-03-19T04:19:44.020Z,93.72
2023-03-19T04:22:15.973Z,94.38
2023-03-19T04:24:47.405Z,94.34
2023-03-19T04:27:18.805Z,94.58
2023-03-19T04:29:50.143Z,94.89
2023-03-19T04:32:21.745Z,94.91
2023-03-19T04:34:53.310Z,94.40
2023-03-19T04:37:24.674Z,94.72
2023-03-19T04:39:56.032Z,94.41
2023-03-19T04:42:27.404Z,94.86
2023-03-19T04:44:58.749Z,94.45
2023-03-19T04:47:30.106Z,94.79
2023-03-19T04:50:01.699Z,94.21
2023-03-19T04:52:33.776Z,94.59
2023-03-19T04:55:07.864Z,94.51
2023-03-19T04:57:39.193Z,95.17
2023-03-19T05:00:11.170Z,95.05
2023-03-19T05:02:42.954Z,94.24
2023-03-19T05:05:14.392Z,94.84
2023-03-19T05:07:45.966Z,94.89
2023-03-19T05:10:17.446Z,94.51
2023-03-19T05:12:49.089Z,94.54
2023-03-19T05:15:20.373Z,94.51
2023-03-19T05:17:51.708Z,94.52
2023-03-19T05:20:23.696Z,94.77
2023-03-19T05:22:55.125Z,94.38
2023-03-19T05:25:26.981Z,94.38
2023-03-19T05:27:58.328Z,94.71
2023-03-19T05:30:30.204Z,94.50
2023-03-19T05:33:02.344Z,94.71
2023-03-19T05:35:34.593Z,94.54
2023-03-19T05:38:06.317Z,94.48
2023-03-19T05:40:37.847Z,94.99
2023-03-19T05:43:10.493Z,94.33
2023-03-19T05:45:43.410Z,94.33
2023-03-19T05:48:14.815Z,94.11
2023-03-19T05:50:46.477Z,94.40
2023-03-19T05:53:18.643Z,93.61
2023-03-19T05:55:49.999Z,94.27
2023-03-19T05:58:21.355Z,93.77
2023-03-19T06:00:56.497Z,94.02
2023-03-19T06:03:27.784Z,93.59
2023-03-19T06:05:59.224Z,94.03
2023-03-19T06:08:30.537Z,93.35
2023-03-19T06:11:01.865Z,93.55
2023-03-19T06:13:33.325Z,93.77
2023-03-19T06:16:05.029Z,93.60
2023-03-19T06:18:36.578Z,93.50
2023-03-19T06:21:09.415Z,93.21
2023-03-19T06:23:40.733Z,92.92
2023-03-19T06:26:12.322Z,92.69
2023-03-19T06:28:43.656Z,92.48
2023-03-19T06:31:14.996Z,92.52
2023-03-19T06:33:46.560Z,92.34
2023-03-19T06:36:17.903Z,92.37
2023-03-19T06:38:49.177Z,91.88
2023-03-19T06:41:21.233Z,91.86
2023-03-19T06:43:53.202Z,91.95
2023-03-19T06:46:24.807Z,91.42
2023-03-19T06:48:57.065Z,90.87
2023-03-19T06:51:28.455Z,90.77
2023-03-19T06:53:59.901Z,90.87
2023-03-19T06:56:31.333Z,90.33
2023-03-19T06:59:02.846Z,90.21
2023-03-19T07:01:34.145Z,89.81
2023-03-19T07:04:05.587Z,89.88
2023-03-19T07:06:36.939Z,89.16
2023-03-19T07:09:08.334Z,89.14
2023-03-19T07:11:39.719Z,89.05
2023-03-19T07:14:11.510Z,88.70
2023-03-19T07:16:42.866Z,88.36
2023-03-19T07:19:14.172Z,88.04
2023-03-19T07:21:46.649Z,87.83
2023-03-19T07:24:18.202Z,88.18
2023-03-19T07:26:49.557Z,88.05
2023-03-19T07:29:21.117Z,87.83
2023-03-19T07:31:52.447Z,87.63
2023-03-19T07:34:23.902Z,87.35
2023-03-19T07:36:55.222Z,87.42
2023-03-19T07:39:26.584Z,87.21
2023-03-19T07:41:57.908Z,87.25
2023-03-19T07:44:29.815Z,86.58
2023-03-19T07:47:01.121Z,86.39
2023-03-19T07:49:32.460Z,86.07
2023-03-19T07:52:04.963Z,85.89
2023-03-19T07:54:36.552Z,85.28
2023-03-19T07:57:08.967Z,85.47
2023-03-19T07:59:40.495Z,85.97
2023-03-19T08:02:13.225Z,85.58
2023-03-19T08:04:44.606Z,85.10
2023-03-19T08:07:16.824Z,85.12
2023-03-19T08:09:48.287Z,84.59
2023-03-19T08:12:19.640Z,84.28
2023-03-19T08:14:51.034Z,83.55
2023-03-19T08:17:22.352Z,82.81
2023-03-19T08:19:53.677Z,82.28
2023-03-19T08:22:24.955Z,81.94
2023-03-19T08:24:56.280Z,81.91
2023-03-19T08:27:28.676Z,81.79
2023-03-19T08:30:00.131Z,80.77
2023-03-19T08:32:31.490Z,80.24
2023-03-19T08:35:04.246Z,80.01
2023-03-19T08:37:35.676Z,80.14
2023-03-19T08:40:07.966Z,80.09
2023-03-19T08:42:44.350Z,79.93
2023-03-19T08:45:16.650Z,79.72
2023-03-19T08:47:48.906Z,79.67
2023-03-19T08:50:20.353Z,79.41
2023-03-19T08:52:52.070Z,79.41
2023-03-19T08:55:23.510Z,79.19
2023-03-19T08:57:56.108Z,79.20
2023-03-19T09:00:27.851Z,78.65
2023-03-19T09:02:59.261Z,78.18
2023-03-19T09:05:30.817Z,77.34
2023-03-19T09:08:02.300Z,77.06
2023-03-19T09:10:33.799Z,76.54
2023-03-19T09:13:05.591Z,76.13
2023-03-19T09:15:36.921Z,75.72
2023-03-19T09:18:08.299Z,75.03
2023-03-19T09:20:39.637Z,74.92
2023-03-19T09:23:10.977Z,73.80
2023-03-19T09:25:42.602Z,73.43
2023-03-19T09:28:13.899Z,72.95
2023-03-19T09:30:47.298Z,72.33
2023-03-19T09:33:20.467Z,72.43
2023-03-19T09:35:53.753Z,71.46
2023-03-19T09:38:25.105Z,71.02
2023-03-19T09:41:12.969Z,69.43
2023-03-19T09:44:16.149Z,68.75
2023-03-19T09:46:59.781Z,69.09
2023-03-19T09:49:37.721Z,68.80
2023-03-19T09:52:28.387Z,69.12
2023-03-19T09:55:11.524Z,68.40
2023-03-19T09:57:42.806Z,68.86
2023-03-19T10:00:17.119Z,68.17
2023-03-19T10:02:54.146Z,67.58
2023-03-19T10:05:42.037Z,66.57
2023-03-19T10:08:41.776Z,66.31
2023-03-19T10:11:31.458Z,65.83
2023-03-19T10:14:23.090Z,65.95
2023-03-19T10:16:58.986Z,66.34
2023-03-19T10:19:50.489Z,66.66
2023-03-19T10:22:34.858Z,67.37
2023-03-19T10:25:13.533Z,66.77
2023-03-19T10:27:48.550Z,66.55
2023-03-19T10:30:20.872Z,65.82
2023-03-19T10:32:59.005Z,64.62
2023-03-19T10:35:51.077Z,63.80
2023-03-19T10:38:24.791Z,64.06
2023-03-19T10:41:32.164Z,62.33
2023-03-19T10:44:10.591Z,63.43
2023-03-19T10:46:41.898Z,63.16
2023-03-19T10:49:15.043Z,62.10
2023-03-19T10:51:46.678Z,62.08
2023-03-19T10:54:26.386Z,61.06
2023-03-19T10:56:59.816Z,60.89
2023-03-19T10:59:36.097Z,60.25
2023-03-19T11:02:23.386Z,58.19
2023-03-19T11:05:12.800Z,58.40
2023-03-19T11:07:44.410Z,58.92
2023-03-19T11:10:17.137Z,58.34
2023-03-19T11:12:57.671Z,58.26
2023-03-19T11:15:36.443Z,58.25
2023-03-19T11:18:24.987Z,57.45
2023-03-19T11:21:05.274Z,58.34
2023-03-19T11:23:42.111Z,57.89
2023-03-19T11:26:19.176Z,57.19
2023-03-19T11:28:51.952Z,57.48
2023-03-19T11:31:56.235Z,56.67
2023-03-19T11:34:53.730Z,57.81
2023-03-19T11:37:29.532Z,58.13
2023-03-19T11:40:14.402Z,57.74
2023-03-19T11:43:05.083Z,58.23
2023-03-19T11:45:53.616Z,57.55
2023-03-19T11:49:02.390Z,57.72
2023-03-19T11:51:59.979Z,59.08
2023-03-19T11:54:49.867Z,59.41
2023-03-19T11:58:06.844Z,59.10
2023-03-19T12:00:50.699Z,58.58
2023-03-19T12:03:52.457Z,57.84
2023-03-19T12:06:46.731Z,58.02
2023-03-19T12:09:41.638Z,57.82
2023-03-19T12:12:33.132Z,58.33
2023-03-19T12:15:16.195Z,58.45
2023-03-19T12:18:13.726Z,58.23
2023-03-19T12:21:11.001Z,58.27
2023-03-19T12:24:02.664Z,58.40
2023-03-19T12:27:06.491Z,57.78
2023-03-19T12:30:01.859Z,56.76
2023-03-19T12:32:53.938Z,55.93
2023-03-19T12:35:38.358Z,55.68
2023-03-19T12:38:38.135Z,55.20
2023-03-19T12:41:12.616Z,54.93
2023-03-19T12:44:05.129Z,54.21
2023-03-19T12:46:45.849Z,55.09
2023-03-19T12:49:25.810Z,55.22
2023-03-19T12:52:23.884Z,55.25
2023-03-19T12:55:05.766Z,55.71
2023-03-19T12:57:48.729Z,55.84
2023-03-19T13:00:43.092Z,56.34
2023-03-19T13:03:23.051Z,56.63
2023-03-19T13:06:09.090Z,57.28
2023-03-19T13:09:03.804Z,57.45
2023-03-19T13:11:44.308Z,57.98
2023-03-19T13:14:25.476Z,58.85
2023-03-19T13:17:21.245Z,60.02
2023-03-19T13:19:56.952Z,60.16
2023-03-19T13:22:32.783Z,60.46
2023-03-19T13:25:05.599Z,61.08
2023-03-19T13:27:36.961Z,60.34
2023-03-19T13:30:11.177Z,60.97
2023-03-19T13:33:04.421Z,60.57
2023-03-19T13:35:43.525Z,61.20
2023-03-19T13:38:39.473Z,61.23
2023-03-19T13:41:32.673Z,61.33
2023-03-19T13:44:22.065Z,61.58
2023-03-19T13:46:53.509Z,61.41
2023-03-19T13:49:33.916Z,61.56
2023-03-19T13:52:11.533Z,62.12
2023-03-19T13:54:47.727Z,62.23
2023-03-19T13:57:22.451Z,62.52
2023-03-19T13:59:53.728Z,62.08
2023-03-19T14:02:25.484Z,62.58
2023-03-19T14:05:10.388Z,62.10
2023-03-19T14:07:44.662Z,62.57
2023-03-19T14:10:26.565Z,62.56
2023-03-19T14:13:15.334Z,62.64
2023-03-19T14:15:51.213Z,62.58
2023-03-19T14:18:24.740Z,62.78
2023-03-19T14:20:56.322Z,62.95
2023-03-19T14:23:39.625Z,63.28
2023-03-19T14:26:17.319Z,63.17
2023-03-19T14:29:08.323Z,62.99
2023-03-19T14:31:49.572Z,63.42
2023-03-19T14:34:27.143Z,63.23
2023-03-19T14:37:03.666Z,63.08
2023-03-19T14:39:47.587Z,63.29
2023-03-19T14:42:24.411Z,63.02
2023-03-19T14:45:18.071Z,63.34
2023-03-19T14:48:15.135Z,62.98
2023-03-19T14:51:09.825Z,64.13
2023-03-19T14:53:46.372Z,64.29
2023-03-19T14:56:26.100Z,64.19
2023-03-19T14:59:03.527Z,64.26
2023-03-19T15:01:41.189Z,64.05
2023-03-19T15:04:15.747Z,64.36
2023-03-19T15:06:54.759Z,64.17
2023-03-19T15:09:32.386Z,63.47
2023-03-19T15:12:33.501Z,63.60
2023-03-19T15:15:16.632Z,63.00
2023-03-19T15:18:03.448Z,63.19
2023-03-19T15:20:47.408Z,63.39
2023-03-19T15:23:27.273Z,63.77
2023-03-19T15:26:02.933Z,64.62
2023-03-19T15:28:46.680Z,64.54
2023-03-19T15:31:31.781Z,64.77
2023-03-19T15:34:27.921Z,65.15
2023-03-19T15:37:12.152Z,65.12
2023-03-19T15:39:51.567Z,64.93
2023-03-19T15:42:26.731Z,65.29
2023-03-19T15:45:07.461Z,65.32
2023-03-19T15:47:45.984Z,65.38
2023-03-19T15:50:23.646Z,65.50
2023-03-19T15:53:00.819Z,65.58
2023-03-19T15:55:35.597Z,65.60
2023-03-19T15:58:16.965Z,65.37
2023-03-19T16:00:48.855Z,65.73
2023-03-19T16:03:42.659Z,65.28
2023-03-19T16:06:36.832Z,66.01
2023-03-19T16:09:14.209Z,66.18
2023-03-19T16:11:46.292Z,66.18
2023-03-19T16:14:35.134Z,66.25
2023-03-19T16:17:15.796Z,66.21
2023-03-19T16:19:49.795Z,66.66
2023-03-19T16:22:23.764Z,66.77
2023-03-19T16:24:55.949Z,66.87
2023-03-19T16:27:38.380Z,66.87
2023-03-19T16:30:21.348Z,66.94
2023-03-19T16:33:06.833Z,67.17
2023-03-19T16:35:38.461Z,67.75
2023-03-19T16:38:27.786Z,67.81
2023-03-19T16:41:22.939Z,68.03
2023-03-19T16:43:55.122Z,68.57
2023-03-19T16:46:27.000Z,68.32
2023-03-19T16:49:00.025Z,68.56
2023-03-19T16:51:32.207Z,68.85
2023-03-19T16:54:04.050Z,69.16
2023-03-19T16:56:36.415Z,69.40
2023-03-19T16:59:19.862Z,69.46
2023-03-19T17:01:51.323Z,69.51
2023-03-19T17:04:23.912Z,69.87
2023-03-19T17:06:55.412Z,69.94
2023-03-19T17:09:27.219Z,70.82
2023-03-19T17:11:59.285Z,70.34
2023-03-19T17:14:31.733Z,70.83
2023-03-19T17:17:03.201Z,71.00
2023-03-19T17:19:36.124Z,71.03
2023-03-19T17:22:10.807Z,71.59
2023-03-19T17:24:43.495Z,71.63
2023-03-19T17:27:15.388Z,71.64
2023-03-19T17:29:46.722Z,72.13
2023-03-19T17:32:19.886Z,72.71
2023-03-19T17:34:51.237Z,72.60
2023-03-19T17:37:22.606Z,72.96
2023-03-19T17:39:54.652Z,73.24
2023-03-19T17:42:26.016Z,73.46
2023-03-19T17:44:58.863Z,73.79
2023-03-19T17:47:30.441Z,73.72
2023-03-19T17:50:01.824Z,74.34
2023-03-19T17:52:35.332Z,74.67
2023-03-19T17:55:28.275Z,74.55
2023-03-19T17:57:59.596Z,74.59
2023-03-19T18:00:30.932Z,74.96
2023-03-19T18:03:04.315Z,75.06
2023-03-19T18:05:35.727Z,74.99
2023-03-19T18:08:09.347Z,75.24
2023-03-19T18:10:41.000Z,75.43
2023-03-19T18:13:12.674Z,75.88
2023-03-19T18:15:45.462Z,75.58
2023-03-19T18:18:20.329Z,75.86
2023-03-19T18:20:52.334Z,75.84
2023-03-19T18:23:24.672Z,75.91
2023-03-19T18:25:56.258Z,75.97
2023-03-19T18:28:27.640Z,76.28
2023-03-19T18:31:00.349Z,76.27
2023-03-19T18:33:33.051Z,76.68
2023-03-19T18:36:04.623Z,76.92
2023-03-19T18:38:36.935Z,77.57
2023-03-19T18:41:12.293Z,77.01
2023-03-19T18:43:43.642Z,77.39
2023-03-19T18:46:20.641Z,77.88
2023-03-19T18:48:56.986Z,77.86
2023-03-19T18:51:28.467Z,77.89
2023-03-19T18:53:59.776Z,77.71
2023-03-19T18:56:34.763Z,77.79
2023-03-19T18:59:17.241Z,78.34
2023-03-19T19:01:49.526Z,78.14
2023-03-19T19:04:21.216Z,78.56
2023-03-19T19:06:52.548Z,78.78
2023-03-19T19:09:23.864Z,78.90
2023-03-19T19:11:58.558Z,79.01
2023-03-19T19:14:30.208Z,79.14
2023-03-19T19:17:01.627Z,79.24
2023-03-19T19:19:32.993Z,79.40
2023-03-19T19:22:04.462Z,79.89
2023-03-19T19:24:35.788Z,79.71
2023-03-19T19:27:15.422Z,79.76
2023-03-19T19:29:46.991Z,79.97
2023-03-19T19:32:24.954Z,80.27
2023-03-19T19:34:56.851Z,80.39
2023-03-19T19:37:28.163Z,80.43
2023-03-19T19:39:59.452Z,80.20
2023-03-19T19:42:30.848Z,80.67
2023-03-19T19:45:03.408Z,80.62
2023-03-19T19:47:35.729Z,80.77
2023-03-19T19:50:17.029Z,80.85
2023-03-19T19:52:48.669Z,80.81
2023-03-19T19:55:20.224Z,80.85
2023-03-19T19:57:54.019Z,81.25
2023-03-19T20:00:28.502Z,81.11
2023-03-19T20:03:00.771Z,81.76
2023-03-19T20:05:34.434Z,82.24
2023-03-19T20:08:06.235Z,82.66
2023-03-19T20:10:38.227Z,82.58
2023-03-19T20:13:22.507Z,83.06
2023-03-19T20:15:57.198Z,82.72
2023-03-19T20:18:33.240Z,82.81
2023-03-19T20:21:04.800Z,82.59
2023-03-19T20:23:36.387Z,83.16
2023-03-19T20:26:12.930Z,83.42
2023-03-19T20:28:45.327Z,83.44
2023-03-19T20:31:27.809Z,83.71
2023-03-19T20:33:59.180Z,83.64
2023-03-19T20:36:30.529Z,83.58
2023-03-19T20:39:01.873Z,83.76
2023-03-19T20:41:33.235Z,84.11
2023-03-19T20:44:05.978Z,84.06
2023-03-19T20:46:37.606Z,83.88
2023-03-19T20:49:14.462Z,84.29
2023-03-19T20:51:46.821Z,84.73
2023-03-19T20:54:18.597Z,84.80
2023-03-19T20:56:49.966Z,85.08
2023-03-19T20:59:21.400Z,85.22
2023-03-19T21:01:56.239Z,85.41
2023-03-19T21:04:27.631Z,85.69
2023-03-19T21:06:59.354Z,85.50
2023-03-19T21:09:30.788Z,85.81
2023-03-19T21:12:02.183Z,86.20
2023-03-19T21:14:34.649Z,85.45
2023-03-19T21:17:06.278Z,85.96
2023-03-19T21:19:40.683Z,86.25
2023-03-19T21:22:28.307Z,86.49
2023-03-19T21:25:09.650Z,86.01
2023-03-19T21:27:45.509Z,85.93
2023-03-19T21:30:18.660Z,86.40
2023-03-19T21:32:51.541Z,86.13
2023-03-19T21:35:25.784Z,86.43
2023-03-19T21:37:57.112Z,87.01
2023-03-19T21:40:30.806Z,86.90
2023-03-19T21:43:02.860Z,86.93
2023-03-19T21:45:36.474Z,86.82
2023-03-19T21:48:31.033Z,87.16
2023-03-19T21:51:04.084Z,87.22
2023-03-19T21:53:35.476Z,87.33
2023-03-19T21:56:15.295Z,87.42
2023-03-19T21:58:47.356Z,87.46
2023-03-19T22:01:24.156Z,87.19
2023-03-19T22:03:57.213Z,87.12
2023-03-19T22:06:28.946Z,87.70
2023-03-19T22:09:00.323Z,87.44
2023-03-19T22:11:36.384Z,87.73
2023-03-19T22:14:17.739Z,87.67
2023-03-19T22:16:53.404Z,87.60
2023-03-19T22:19:25.765Z,87.41
2023-03-19T22:21:57.139Z,87.40
2023-03-19T22:24:28.519Z,87.06
2023-03-19T22:27:00.902Z,87.38
2023-03-19T22:29:32.906Z,87.02
2023-03-19T22:32:06.561Z,87.37
2023-03-19T22:34:37.897Z,86.89
2023-03-19T22:37:29.557Z,87.16
2023-03-19T22:40:00.880Z,87.48
2023-03-19T22:42:32.584Z,87.35
2023-03-19T22:45:04.525Z,86.83
2023-03-19T22:47:38.151Z,87.30
2023-03-19T22:50:28.336Z,86.95
2023-03-19T22:52:59.679Z,87.34
2023-03-19T22:55:31.848Z,87.61
2023-03-19T22:58:03.167Z,87.78
2023-03-19T23:00:34.515Z,87.61
2023-03-19T23:03:09.008Z,87.48
2023-03-19T23:05:42.976Z,88.01
2023-03-19T23:08:18.257Z,87.40
2023-03-19T23:10:51.428Z,87.54
2023-03-19T23:13:23.030Z,87.39
2023-03-19T23:15:58.226Z,87.22
2023-03-19T23:18:33.082Z,87.21
2023-03-19T23:21:04.543Z,87.19
2023-03-19T23:23:36.108Z,87.38
2023-03-19T23:26:23.053Z,87.25
2023-03-19T23:28:56.639Z,87.39
2023-03-19T23:31:28.572Z,87.30
2023-03-19T23:34:00.967Z,86.89
2023-03-19T23:36:32.555Z,87.08
2023-03-19T23:39:04.730Z,87.71
2023-03-19T23:41:44.590Z,87.63
2023-03-19T23:44:18.395Z,86.89
2023-03-19T23:46:51.943Z,87.64
2023-03-19T23:49:30.697Z,88.08
2023-03-19T23:52:04.203Z,87.66
2023-03-19T23:54:39.476Z,87.50
2023-03-19T23:57:15.510Z,87.94
2023-03-19T23:59:50.256Z,87.94
